Terminal Aerodrome Forecast
Issued by NWS Duluth, MN

Home | Current Version | Previous Version | Text Only | Print | Product List | Glossary On
Versions: 1 2 3 4 5 6 7 8 9 10 11 12 13 14 15 16 17 18 19 20 21 22 23 24 25 26 27 28
000
FTUS43 KDLH 241733
TAFINL
TAF
KINL 241733Z 2418/2518 30010KT P6SM VCSH SCT025 OVC070
      TEMPO 2419/2420 -SHRA BKN025 OVC070
     FM242000 30010KT P6SM -SHRA BKN025 OVC060
     FM250100 31006KT P6SM VCSH SCT020 OVC030
     FM250300 31004KT 6SM -SHRA BR BKN020 OVC050
      TEMPO 2511/2515 5SM -SHRA BR OVC010
     FM251600 33008KT P6SM -SHRA BKN025 OVC050=

USA.gov is the U.S. government's official web portal to all federal, state and local government web resources and services.